Time;durP1;ratioP1;P1;durP2;ratioP2;P2;SDS_P1;SDS_P2;PMS_P1;PMS_P2;Temp;Humidity;BMP_temperature;BMP_pressure;BME280_temperature;BME280_humidity;BME280_pressure;Samples;Min_cycle;Max_cycle;Signal;HPM_P1;HPM_P2
2020/12/14 00:02:05;;;;;;;3.45;3.08;;;5.80;80.60;;;;;;5068063;28;20028;-67
2020/12/14 00:04:31;;;;;;;3.10;2.80;;;5.80;80.60;;;;;;5068063;28;20025;-66
2020/12/14 00:06:57;;;;;;;3.28;2.97;;;5.80;80.20;;;;;;5061440;28;20040;-66
2020/12/14 00:09:23;;;;;;;3.00;2.70;;;5.70;79.90;;;;;;5066693;28;20043;-67
2020/12/14 00:11:52;;;;;;;3.40;3.00;;;5.70;79.90;;;;;;5065886;28;20120;-67
2020/12/14 00:14:17;;;;;;;3.17;2.88;;;5.70;79.90;;;;;;5067566;28;20033;-64
2020/12/14 00:16:43;;;;;;;3.55;3.03;;;5.60;79.70;;;;;;5065293;28;20241;-66
2020/12/14 00:19:09;;;;;;;3.67;3.15;;;5.50;79.80;;;;;;5064761;28;20048;-67
2020/12/14 00:21:35;;;;;;;3.85;3.10;;;5.40;79.90;;;;;;5066709;28;20086;-67
2020/12/14 00:24:01;;;;;;;4.43;3.20;;;5.30;80.10;;;;;;5061752;28;20120;-66
2020/12/14 00:26:27;;;;;;;4.85;4.00;;;5.20;80.10;;;;;;5065160;28;20032;-67
2020/12/14 00:28:52;;;;;;;5.32;3.92;;;5.20;80.20;;;;;;5066646;28;20044;-67
2020/12/14 00:31:19;;;;;;;6.80;4.72;;;5.10;80.40;;;;;;5066589;28;20052;-66
2020/12/14 00:33:45;;;;;;;10.43;5.40;;;5.00;80.60;;;;;;5065688;28;20033;-67
2020/12/14 00:36:11;;;;;;;9.02;4.90;;;5.00;80.90;;;;;;5067187;28;20126;-67
2020/12/14 00:38:38;;;;;;;9.10;4.75;;;4.90;80.90;;;;;;5057616;28;20419;-66
2020/12/14 00:41:04;;;;;;;8.98;5.68;;;4.90;80.90;;;;;;5065544;28;20053;-66
2020/12/14 00:43:30;;;;;;;7.25;4.65;;;4.80;80.90;;;;;;5064559;28;20032;-67
2020/12/14 00:45:55;;;;;;;6.10;4.57;;;4.80;80.70;;;;;;5065153;28;20169;-67
2020/12/14 00:48:21;;;;;;;7.63;3.95;;;4.80;80.70;;;;;;5062642;28;20032;-68
2020/12/14 00:50:49;;;;;;;6.22;4.03;;;4.70;80.80;;;;;;5062340;28;20039;-67
2020/12/14 00:53:15;;;;;;;5.97;4.03;;;4.70;80.60;;;;;;5064580;28;20319;-66
2020/12/14 00:55:41;;;;;;;6.57;3.72;;;4.70;80.50;;;;;;5068312;28;20112;-67
2020/12/14 00:58:06;;;;;;;4.45;3.55;;;4.70;80.40;;;;;;5068070;28;20115;-65
2020/12/14 01:00:32;;;;;;;4.45;3.67;;;4.70;80.40;;;;;;5066222;28;20443;-66
2020/12/14 01:02:58;;;;;;;6.38;4.20;;;4.70;80.60;;;;;;5066446;28;20056;-67
2020/12/14 01:05:24;;;;;;;6.18;3.70;;;4.60;80.60;;;;;;5066746;28;20491;-64
2020/12/14 01:07:50;;;;;;;5.13;3.67;;;4.60;80.40;;;;;;5066408;28;20032;-67
2020/12/14 01:10:15;;;;;;;3.80;3.30;;;4.60;80.10;;;;;;5066178;28;20106;-66
2020/12/14 01:12:41;;;;;;;6.15;4.57;;;4.50;80.00;;;;;;5064431;28;20036;-66
2020/12/14 01:15:07;;;;;;;8.60;5.57;;;4.50;80.30;;;;;;5066405;28;20037;-67
2020/12/14 01:17:35;;;;;;;8.45;4.50;;;4.50;80.60;;;;;;5066516;28;20569;-66
2020/12/14 01:20:01;;;;;;;8.05;4.82;;;4.50;80.70;;;;;;5067995;28;20029;-66
2020/12/14 01:22:26;;;;;;;7.13;4.75;;;4.50;80.80;;;;;;5067446;28;20040;-67
2020/12/14 01:24:52;;;;;;;5.28;4.10;;;4.40;80.70;;;;;;5056900;28;20120;-65
2020/12/14 01:27:17;;;;;;;6.18;4.40;;;4.40;80.60;;;;;;5067466;28;20037;-67
2020/12/14 01:29:43;;;;;;;36.45;5.47;;;4.40;80.60;;;;;;5067198;28;20062;-67
2020/12/14 01:32:09;;;;;;;49.03;5.82;;;4.40;80.60;;;;;;5067932;28;20035;-65
2020/12/14 01:34:34;;;;;;;90.75;6.00;;;4.40;81.30;;;;;;5066933;28;20507;-67
2020/12/14 01:37:00;;;;;;;131.38;6.68;;;4.30;80.20;;;;;;5065894;28;20082;-67
2020/12/14 01:39:26;;;;;;;90.70;5.05;;;4.40;80.10;;;;;;5067399;28;20020;-66
2020/12/14 01:41:51;;;;;;;69.88;5.25;;;4.30;80.20;;;;;;5067594;28;20813;-66
2020/12/14 01:44:17;;;;;;;45.78;4.80;;;4.30;80.30;;;;;;5052120;28;20025;-66
2020/12/14 01:46:44;;;;;;;34.22;4.55;;;4.20;80.20;;;;;;5063488;28;20049;-65
2020/12/14 01:49:10;;;;;;;26.20;4.07;;;4.20;80.30;;;;;;5065725;28;20040;-66
2020/12/14 01:51:37;;;;;;;35.90;4.43;;;4.20;80.50;;;;;;5058357;28;20500;-65
2020/12/14 01:54:12;;;;;;;14.70;4.30;;;4.20;80.40;;;;;;5066262;28;20064;-67
2020/12/14 01:56:37;;;;;;;16.55;4.10;;;4.10;80.20;;;;;;5065101;28;20029;-65
2020/12/14 01:59:03;;;;;;;8.73;4.55;;;4.10;80.40;;;;;;5063464;28;20559;-67
2020/12/14 02:01:29;;;;;;;18.70;4.85;;;4.10;80.20;;;;;;5057356;28;20040;-67
2020/12/14 02:03:54;;;;;;;10.95;4.88;;;4.10;80.00;;;;;;5061214;28;20070;-66
2020/12/14 02:06:20;;;;;;;9.40;4.90;;;4.00;79.90;;;;;;5069652;28;20032;-67
2020/12/14 02:08:46;;;;;;;7.78;4.97;;;3.90;79.90;;;;;;5062773;28;20086;-67
2020/12/14 02:11:12;;;;;;;5.82;4.05;;;3.90;79.90;;;;;;5067992;28;20094;-66
2020/12/14 02:13:37;;;;;;;5.95;4.32;;;3.80;79.90;;;;;;5069744;28;20028;-67
2020/12/14 02:16:03;;;;;;;4.50;4.00;;;3.80;80.20;;;;;;5068619;28;20520;-66
2020/12/14 02:18:29;;;;;;;5.60;3.85;;;3.70;80.20;;;;;;5068018;28;20067;-66
2020/12/14 02:20:54;;;;;;;4.70;3.70;;;3.60;80.30;;;;;;5070207;28;20041;-65
2020/12/14 02:23:20;;;;;;;5.63;3.45;;;3.60;80.50;;;;;;5068219;28;20031;-66
2020/12/14 02:25:45;;;;;;;4.53;3.47;;;3.50;80.70;;;;;;5071464;28;20056;-67
2020/12/14 02:28:11;;;;;;;4.68;3.58;;;3.50;81.00;;;;;;5068728;28;20033;-66
2020/12/14 02:30:36;;;;;;;5.53;3.97;;;3.50;81.20;;;;;;5068475;28;20036;-65
2020/12/14 02:33:02;;;;;;;5.45;4.00;;;3.50;81.20;;;;;;5061368;28;20408;-66
2020/12/14 02:35:28;;;;;;;4.25;3.38;;;3.50;81.80;;;;;;5068724;28;20082;-67
2020/12/14 02:37:53;;;;;;;5.72;3.92;;;3.40;80.80;;;;;;5070582;28;20036;-66
2020/12/14 02:40:19;;;;;;;5.82;4.50;;;3.40;80.80;;;;;;5067731;28;20114;-66
2020/12/14 02:42:44;;;;;;;4.05;3.65;;;3.40;80.80;;;;;;5067827;28;20112;-66
2020/12/14 02:45:13;;;;;;;5.47;3.95;;;3.30;80.90;;;;;;5070267;28;20115;-63
2020/12/14 02:47:38;;;;;;;5.78;4.18;;;3.30;80.90;;;;;;5069977;28;20419;-65
2020/12/14 02:50:04;;;;;;;5.95;4.03;;;3.30;81.10;;;;;;5068516;28;20028;-63
2020/12/14 02:52:30;;;;;;;5.35;4.20;;;3.20;81.10;;;;;;5070466;28;20040;-66
2020/12/14 02:54:56;;;;;;;4.90;3.88;;;3.20;81.30;;;;;;5069663;28;20035;-66
2020/12/14 02:57:21;;;;;;;4.07;3.33;;;3.10;81.30;;;;;;5070735;28;20757;-66
2020/12/14 02:59:47;;;;;;;4.53;3.80;;;3.10;81.50;;;;;;5067327;28;20032;-65
2020/12/14 03:02:13;;;;;;;4.25;3.65;;;3.10;81.60;;;;;;5068658;28;20038;-67
2020/12/14 03:04:38;;;;;;;4.13;3.40;;;3.10;81.80;;;;;;5063453;28;20039;-66
2020/12/14 03:07:04;;;;;;;4.20;3.53;;;3.10;82.60;;;;;;5066203;28;20033;-66
2020/12/14 03:09:29;;;;;;;6.80;3.65;;;3.10;81.80;;;;;;5049164;28;20025;-66
2020/12/14 03:11:55;;;;;;;4.65;3.60;;;3.10;81.80;;;;;;5064796;28;20056;-66
2020/12/14 03:14:21;;;;;;;5.00;4.05;;;3.10;82.00;;;;;;5069747;28;20048;-66
2020/12/14 03:16:49;;;;;;;5.18;3.75;;;3.10;82.00;;;;;;5064790;28;20511;-66
2020/12/14 03:19:15;;;;;;;4.35;3.72;;;3.10;81.80;;;;;;5069470;28;20448;-66
2020/12/14 03:21:41;;;;;;;5.53;3.30;;;3.20;81.80;;;;;;5067474;28;20489;-66
2020/12/14 03:24:07;;;;;;;5.47;4.10;;;3.20;81.50;;;;;;5068334;28;20032;-66
2020/12/14 03:26:33;;;;;;;6.63;3.80;;;3.20;81.30;;;;;;5066469;28;20039;-66
2020/12/14 03:28:59;;;;;;;5.22;3.45;;;3.20;81.40;;;;;;5067861;28;20036;-66
2020/12/14 03:31:24;;;;;;;4.57;3.65;;;3.10;81.40;;;;;;5066963;28;20033;-67
2020/12/14 03:33:52;;;;;;;4.78;3.40;;;3.20;81.40;;;;;;5068837;28;20450;-66
2020/12/14 03:36:20;;;;;;;4.22;3.78;;;3.10;81.30;;;;;;5066943;28;20028;-66
2020/12/14 03:38:47;;;;;;;6.10;4.00;;;3.20;81.30;;;;;;5066074;28;20091;-66
2020/12/14 03:41:13;;;;;;;5.05;3.70;;;3.10;80.90;;;;;;5068568;28;20032;-67
2020/12/14 03:43:38;;;;;;;4.97;3.80;;;3.10;81.00;;;;;;5066643;28;20116;-66
2020/12/14 03:46:04;;;;;;;5.65;3.80;;;3.10;81.10;;;;;;5069235;28;20491;-66
2020/12/14 03:48:30;;;;;;;4.60;3.83;;;3.10;81.10;;;;;;5067158;28;20543;-65
2020/12/14 03:50:55;;;;;;;3.90;3.33;;;3.10;81.10;;;;;;5067272;28;20086;-66
2020/12/14 03:53:21;;;;;;;5.13;3.50;;;3.10;81.20;;;;;;5068589;28;20040;-66
2020/12/14 03:55:50;;;;;;;4.63;3.47;;;3.10;81.30;;;;;;5067957;28;20037;-66
2020/12/14 03:58:17;;;;;;;4.30;3.70;;;3.10;81.30;;;;;;5066161;28;20033;-66
2020/12/14 04:00:45;;;;;;;4.95;3.83;;;3.10;81.20;;;;;;5062245;28;20495;-67
2020/12/14 04:03:10;;;;;;;11.73;3.83;;;3.10;81.20;;;;;;5067936;28;20058;-66
2020/12/14 04:05:37;;;;;;;5.90;3.67;;;3.10;81.10;;;;;;5068100;28;20115;-66
2020/12/14 04:08:03;;;;;;;44.13;5.50;;;3.10;81.10;;;;;;5056898;28;20125;-66
2020/12/14 04:10:29;;;;;;;70.25;5.93;;;3.10;81.20;;;;;;5048321;28;20024;-66
2020/12/14 04:12:55;;;;;;;40.47;5.82;;;3.10;81.30;;;;;;5067640;28;20035;-66
2020/12/14 04:15:20;;;;;;;44.63;4.88;;;3.10;81.40;;;;;;5062740;28;20504;-66
2020/12/14 04:17:46;;;;;;;84.25;7.93;;;3.10;81.60;;;;;;5061915;28;20036;-66
2020/12/14 04:20:12;;;;;;;79.93;9.35;;;3.10;81.60;;;;;;5065527;28;20420;-66
2020/12/14 04:22:37;;;;;;;46.97;5.85;;;3.10;81.60;;;;;;5065925;28;20040;-66
2020/12/14 04:25:04;;;;;;;22.15;4.80;;;3.10;81.60;;;;;;5067072;28;20083;-66
2020/12/14 04:27:29;;;;;;;10.15;5.05;;;3.10;81.60;;;;;;5058876;28;20037;-66
2020/12/14 04:29:55;;;;;;;23.63;6.30;;;3.10;81.60;;;;;;5059287;28;20491;-66
2020/12/14 04:32:20;;;;;;;13.88;4.57;;;3.10;81.80;;;;;;5064858;28;20033;-66
2020/12/14 04:34:46;;;;;;;10.23;4.38;;;3.00;81.80;;;;;;5065632;28;20101;-66
2020/12/14 04:37:12;;;;;;;25.50;4.15;;;3.10;81.80;;;;;;5064851;28;20405;-66
2020/12/14 04:39:37;;;;;;;34.83;4.65;;;3.10;81.60;;;;;;5067360;28;20029;-66
2020/12/14 04:42:04;;;;;;;58.60;6.25;;;3.00;81.50;;;;;;5067751;28;20029;-66
2020/12/14 04:44:31;;;;;;;64.45;7.13;;;3.00;81.10;;;;;;5068312;28;20033;-66
2020/12/14 04:46:57;;;;;;;132.82;12.98;;;3.00;80.90;;;;;;5066708;28;20272;-66
2020/12/14 04:49:23;;;;;;;127.65;15.95;;;2.90;80.60;;;;;;5068167;28;20036;-66
2020/12/14 04:51:51;;;;;;;108.13;9.60;;;2.90;80.60;;;;;;5064971;28;20029;-66
2020/12/14 04:54:18;;;;;;;150.85;8.15;;;2.80;80.70;;;;;;5063168;28;20043;-66
2020/12/14 04:56:46;;;;;;;116.22;7.25;;;2.70;81.20;;;;;;5065827;28;20111;-66
2020/12/14 04:59:12;;;;;;;94.28;6.55;;;2.70;81.50;;;;;;5062170;28;20052;-66
2020/12/14 05:01:37;;;;;;;77.40;7.32;;;2.60;81.80;;;;;;5066237;28;20029;-66
2020/12/14 05:04:03;;;;;;;70.00;5.95;;;2.60;82.20;;;;;;5068150;28;20059;-66
2020/12/14 05:06:50;;;;;;;128.27;7.28;;;2.50;82.50;;;;;;5066440;28;20041;-66
2020/12/14 05:09:19;;;;;;;105.72;6.95;;;2.60;82.80;;;;;;5063117;28;20116;-66
2020/12/14 05:11:46;;;;;;;114.72;7.47;;;2.60;82.80;;;;;;5065344;28;22003;-66
2020/12/14 05:14:35;;;;;;;197.65;11.35;;;2.60;82.80;;;;;;5069401;28;20024;-67
2020/12/14 05:17:01;;;;;;;107.50;7.97;;;2.60;82.90;;;;;;5064781;28;20052;-66
2020/12/14 05:19:28;;;;;;;116.57;7.53;;;2.60;82.80;;;;;;5058449;28;20086;-66
2020/12/14 05:22:01;;;;;;;157.90;7.60;;;2.60;83.00;;;;;;5065696;28;20135;-66
2020/12/14 05:24:28;;;;;;;124.20;8.18;;;2.60;83.20;;;;;;5062012;28;20453;-66
2020/12/14 05:26:54;;;;;;;43.30;6.03;;;2.60;83.20;;;;;;5066589;28;20029;-66
2020/12/14 05:29:23;;;;;;;93.32;7.70;;;2.60;83.40;;;;;;5068132;28;20040;-66
2020/12/14 05:32:06;;;;;;;68.80;6.53;;;2.60;83.50;;;;;;5067314;28;20041;-66
2020/12/14 05:34:38;;;;;;;74.88;6.53;;;2.60;83.90;;;;;;5065405;28;20035;-66
2020/12/14 05:37:07;;;;;;;42.13;7.40;;;2.60;83.80;;;;;;5067201;28;20059;-66
2020/12/14 05:39:35;;;;;;;19.77;5.63;;;2.70;83.90;;;;;;5068474;28;20041;-66
2020/12/14 05:42:27;;;;;;;31.67;5.93;;;2.60;84.70;;;;;;5070379;28;20033;-66
2020/12/14 05:44:53;;;;;;;50.97;8.73;;;2.70;84.50;;;;;;5068529;28;20464;-66
2020/12/14 05:47:30;;;;;;;53.97;7.80;;;2.70;84.20;;;;;;5069316;28;20033;-66
2020/12/14 05:50:07;;;;;;;32.58;6.53;;;2.70;84.40;;;;;;5066444;28;20036;-66
2020/12/14 05:52:35;;;;;;;49.83;6.18;;;2.80;84.60;;;;;;5069221;28;20037;-66
2020/12/14 05:55:02;;;;;;;55.95;6.10;;;2.80;84.40;;;;;;5060463;28;20042;-66
2020/12/14 05:57:33;;;;;;;39.45;7.03;;;2.80;84.40;;;;;;5070246;28;20468;-66
2020/12/14 06:00:00;;;;;;;23.27;6.13;;;2.90;84.40;;;;;;5067404;28;20033;-66
2020/12/14 06:02:27;;;;;;;18.48;6.28;;;2.80;84.40;;;;;;5069187;28;20025;-66
2020/12/14 06:04:57;;;;;;;19.40;6.72;;;2.90;84.60;;;;;;5069716;28;20135;-66
2020/12/14 06:07:27;;;;;;;15.05;7.50;;;2.90;84.50;;;;;;5063280;28;20060;-66
2020/12/14 06:10:08;;;;;;;10.23;6.43;;;2.90;84.70;;;;;;5064677;28;20033;-65
2020/12/14 06:12:44;;;;;;;19.30;6.88;;;3.00;84.70;;;;;;5065474;28;20089;-65
2020/12/14 06:15:15;;;;;;;15.57;7.10;;;3.00;84.60;;;;;;5065804;28;20033;-66
2020/12/14 06:17:40;;;;;;;24.13;7.07;;;3.00;84.60;;;;;;5063720;28;20039;-66
2020/12/14 06:20:08;;;;;;;31.88;7.40;;;3.00;84.60;;;;;;5069990;28;20032;-66
2020/12/14 06:22:35;;;;;;;29.02;6.97;;;3.00;84.60;;;;;;5069465;28;20407;-66
2020/12/14 06:25:03;;;;;;;34.97;7.75;;;3.10;84.70;;;;;;5059064;28;20029;-66
2020/12/14 06:27:29;;;;;;;47.70;7.10;;;3.10;84.70;;;;;;5063317;28;20064;-65
2020/12/14 06:29:56;;;;;;;31.85;7.70;;;3.10;84.60;;;;;;5068450;28;20029;-66
2020/12/14 06:32:38;;;;;;;16.08;8.13;;;3.10;84.60;;;;;;5070263;28;20025;-66
2020/12/14 06:35:14;;;;;;;25.02;9.90;;;3.20;84.70;;;;;;5067605;28;20044;-66
2020/12/14 06:37:52;;;;;;;18.73;8.43;;;3.20;84.60;;;;;;5068317;28;20040;-66
2020/12/14 06:40:18;;;;;;;36.70;7.40;;;3.20;84.50;;;;;;5053611;28;20064;-66
2020/12/14 06:42:44;;;;;;;30.13;7.22;;;3.20;84.30;;;;;;5067401;28;20530;-66
2020/12/14 06:45:12;;;;;;;20.63;7.70;;;3.30;84.30;;;;;;5066031;28;20024;-66
2020/12/14 06:47:41;;;;;;;24.45;8.93;;;3.30;84.20;;;;;;5068310;28;20029;-66
2020/12/14 06:50:28;;;;;;;26.98;7.88;;;3.30;84.20;;;;;;5069538;28;20035;-65
2020/12/14 06:52:55;;;;;;;28.67;6.95;;;3.30;84.40;;;;;;5070356;28;20602;-65
2020/12/14 06:55:42;;;;;;;9.20;6.55;;;3.30;84.20;;;;;;5063281;28;20120;-66
2020/12/14 06:58:29;;;;;;;34.38;7.40;;;3.30;84.40;;;;;;5058801;28;20053;-66
2020/12/14 07:00:55;;;;;;;27.90;7.40;;;3.30;84.30;;;;;;5067752;28;20059;-66
2020/12/14 07:03:37;;;;;;;27.17;7.07;;;3.30;84.20;;;;;;5068167;28;20025;-66
2020/12/14 07:06:07;;;;;;;20.42;7.38;;;3.30;84.40;;;;;;5067598;28;20562;-66
2020/12/14 07:08:38;;;;;;;34.05;8.88;;;3.30;84.20;;;;;;5053660;28;20060;-66
2020/12/14 07:11:14;;;;;;;14.35;7.50;;;3.30;84.20;;;;;;5058733;28;20036;-66
2020/12/14 07:13:41;;;;;;;12.93;8.23;;;3.40;84.10;;;;;;5069252;28;20589;-66
2020/12/14 07:16:11;;;;;;;11.20;8.18;;;3.40;84.00;;;;;;5069693;28;20761;-66
2020/12/14 07:18:38;;;;;;;12.15;6.65;;;3.30;83.90;;;;;;5066321;28;20116;-66
2020/12/14 07:21:10;;;;;;;10.15;7.00;;;3.40;84.00;;;;;;5069113;28;20131;-66
2020/12/14 07:23:38;;;;;;;12.60;6.47;;;3.30;84.00;;;;;;5060364;28;20052;-66
2020/12/14 07:26:05;;;;;;;10.02;6.38;;;3.30;84.00;;;;;;5068697;28;20471;-66
2020/12/14 07:28:48;;;;;;;11.73;6.28;;;3.30;84.90;;;;;;5059456;28;20039;-66
2020/12/14 07:31:21;;;;;;;12.93;6.68;;;3.30;84.20;;;;;;5063609;28;20048;-67
2020/12/14 07:33:58;;;;;;;15.02;6.82;;;3.40;84.00;;;;;;5066310;28;20039;-66
2020/12/14 07:36:26;;;;;;;16.17;6.80;;;3.40;84.00;;;;;;5065901;28;20036;-66
2020/12/14 07:38:54;;;;;;;18.35;6.85;;;3.40;84.00;;;;;;5055947;28;20037;-66
2020/12/14 07:41:20;;;;;;;17.33;7.32;;;3.30;83.70;;;;;;5062617;28;20036;-65
2020/12/14 07:43:54;;;;;;;20.63;7.40;;;3.30;83.70;;;;;;5064106;28;20112;-66
2020/12/14 07:46:30;;;;;;;19.35;7.53;;;3.30;83.80;;;;;;5065445;28;20271;-66
2020/12/14 07:49:09;;;;;;;18.02;6.53;;;3.30;83.70;;;;;;5064613;28;22513;-66
2020/12/14 07:51:45;;;;;;;14.93;6.55;;;3.30;83.70;;;;;;5061863;28;20051;-66
2020/12/14 07:54:16;;;;;;;8.80;6.40;;;3.30;83.80;;;;;;5064952;28;20032;-66
2020/12/14 07:57:00;;;;;;;10.50;7.28;;;3.20;83.90;;;;;;5063995;28;20459;-66
2020/12/14 07:59:27;;;;;;;12.27;6.78;;;3.20;84.00;;;;;;5064594;28;20606;-66
2020/12/14 08:01:54;;;;;;;10.65;7.10;;;3.20;84.10;;;;;;5062647;28;20032;-65
2020/12/14 08:04:24;;;;;;;9.50;7.03;;;3.20;84.10;;;;;;5052761;28;20515;-66
2020/12/14 08:06:50;;;;;;;10.93;6.95;;;3.20;84.20;;;;;;5067470;28;20054;-66
2020/12/14 08:09:19;;;;;;;14.63;6.75;;;3.20;84.20;;;;;;5066637;28;20112;-66
2020/12/14 08:11:48;;;;;;;16.42;6.50;;;3.20;84.30;;;;;;5064847;28;20116;-67
2020/12/14 08:14:18;;;;;;;12.20;6.20;;;3.20;84.50;;;;;;5067227;28;20455;-66
2020/12/14 08:16:48;;;;;;;8.77;6.57;;;3.30;84.60;;;;;;5074570;28;20032;-65
2020/12/14 08:19:18;;;;;;;16.38;6.45;;;3.20;84.60;;;;;;5057806;28;20419;-66
2020/12/14 08:22:04;;;;;;;18.40;6.82;;;3.30;84.60;;;;;;5067649;28;20510;-66
2020/12/14 08:24:31;;;;;;;12.13;6.53;;;3.30;84.80;;;;;;5067275;28;20045;-66
2020/12/14 08:27:03;;;;;;;19.15;6.90;;;3.30;84.50;;;;;;5066448;28;20032;-65
2020/12/14 08:29:29;;;;;;;15.38;7.80;;;3.30;84.40;;;;;;5067756;28;20036;-66
2020/12/14 08:31:57;;;;;;;16.95;7.30;;;3.30;84.40;;;;;;5065438;28;20055;-66
2020/12/14 08:34:37;;;;;;;12.65;7.05;;;3.40;84.40;;;;;;5061462;28;20071;-67
2020/12/14 08:37:04;;;;;;;15.75;6.30;;;3.40;84.40;;;;;;5062697;28;20137;-65
2020/12/14 08:39:31;;;;;;;13.35;8.30;;;3.40;84.20;;;;;;5068956;28;20041;-66
2020/12/14 08:42:05;;;;;;;15.55;7.50;;;3.40;85.10;;;;;;5067055;28;20043;-65
2020/12/14 08:44:31;;;;;;;24.40;14.07;;;3.40;84.30;;;;;;5068872;28;20372;-67
2020/12/14 08:46:56;;;;;;;22.27;7.70;;;3.30;84.20;;;;;;5066905;28;20086;-67
2020/12/14 08:49:22;;;;;;;20.60;7.80;;;3.40;84.40;;;;;;5068866;28;20040;-66
2020/12/14 08:51:49;;;;;;;14.45;7.93;;;3.40;84.40;;;;;;5069021;28;20033;-66
2020/12/14 08:54:19;;;;;;;15.73;7.57;;;3.40;84.40;;;;;;5069139;28;20560;-66
2020/12/14 08:56:46;;;;;;;16.55;7.50;;;3.40;84.50;;;;;;5066395;28;20032;-66
2020/12/14 08:59:15;;;;;;;11.40;7.38;;;3.40;84.60;;;;;;5066754;28;20036;-66
2020/12/14 09:01:55;;;;;;;13.18;8.63;;;3.40;84.60;;;;;;5067415;28;20029;-66
2020/12/14 09:04:36;;;;;;;15.98;8.00;;;3.50;84.90;;;;;;5068008;28;20490;-67
2020/12/14 09:07:04;;;;;;;13.25;8.10;;;3.50;84.90;;;;;;5064636;28;20470;-66
2020/12/14 09:09:32;;;;;;;11.77;7.38;;;3.50;84.70;;;;;;5067135;28;20029;-66
2020/12/14 09:11:59;;;;;;;10.88;6.65;;;3.60;84.60;;;;;;5064772;28;20029;-67
2020/12/14 09:14:30;;;;;;;8.98;6.63;;;3.60;84.40;;;;;;5060790;28;20041;-66
2020/12/14 09:17:14;;;;;;;12.15;6.93;;;3.60;84.40;;;;;;5068162;28;20032;-66
2020/12/14 09:19:40;;;;;;;9.65;6.47;;;3.60;84.40;;;;;;5059614;28;20037;-66
2020/12/14 09:22:07;;;;;;;10.13;6.50;;;3.60;84.40;;;;;;5071935;28;20041;-66
2020/12/14 09:24:35;;;;;;;9.15;6.53;;;3.70;84.50;;;;;;5069843;28;20036;-66
2020/12/14 09:27:07;;;;;;;9.82;6.47;;;3.70;84.40;;;;;;5072484;28;20522;-67
2020/12/14 09:29:33;;;;;;;9.05;6.45;;;3.70;84.30;;;;;;5072556;28;20037;-66
2020/12/14 09:32:00;;;;;;;10.48;6.65;;;3.80;84.30;;;;;;5071915;28;20028;-67
2020/12/14 09:34:26;;;;;;;11.55;6.90;;;3.70;84.30;;;;;;5070455;28;20029;-66
2020/12/14 09:36:53;;;;;;;10.70;6.90;;;3.80;84.30;;;;;;5072721;28;20640;-67
2020/12/14 09:39:22;;;;;;;10.77;7.18;;;3.90;84.40;;;;;;5070453;28;20724;-66
2020/12/14 09:41:48;;;;;;;10.75;7.32;;;3.80;84.30;;;;;;5070705;28;20036;-67
2020/12/14 09:44:13;;;;;;;12.25;7.15;;;3.90;84.30;;;;;;5066699;28;20043;-67
2020/12/14 09:46:39;;;;;;;10.68;6.38;;;3.90;84.20;;;;;;5072656;28;20032;-66
2020/12/14 09:49:05;;;;;;;10.20;6.63;;;3.90;84.10;;;;;;5069830;28;20388;-65
2020/12/14 09:51:34;;;;;;;14.02;7.30;;;3.90;84.10;;;;;;5066351;28;20025;-66
2020/12/14 09:53:59;;;;;;;17.50;7.07;;;3.90;84.20;;;;;;5064809;28;20048;-67
2020/12/14 09:56:25;;;;;;;14.13;6.55;;;3.90;84.40;;;;;;5064772;28;20021;-67
2020/12/14 09:58:51;;;;;;;14.27;6.88;;;3.90;84.30;;;;;;5067878;28;20552;-67
2020/12/14 10:01:17;;;;;;;28.02;7.50;;;3.90;84.20;;;;;;5070746;28;20567;-67
2020/12/14 10:03:42;;;;;;;13.48;6.32;;;3.90;84.10;;;;;;5066272;28;20064;-66
2020/12/14 10:06:12;;;;;;;15.60;6.60;;;3.90;84.00;;;;;;5070446;28;20037;-66
2020/12/14 10:08:39;;;;;;;18.35;6.55;;;3.90;84.20;;;;;;5065841;28;20040;-69
2020/12/14 10:11:05;;;;;;;11.70;6.43;;;3.90;84.40;;;;;;5059619;28;20036;-67
2020/12/14 10:13:31;;;;;;;10.95;6.65;;;4.00;84.40;;;;;;5066989;28;20032;-67
2020/12/14 10:15:57;;;;;;;11.65;6.53;;;4.00;84.50;;;;;;5069012;28;20391;-67
2020/12/14 10:18:24;;;;;;;22.58;7.43;;;4.00;84.60;;;;;;5061076;28;20041;-67
2020/12/14 10:20:49;;;;;;;27.15;8.18;;;4.00;84.60;;;;;;5066596;28;20029;-67
2020/12/14 10:23:15;;;;;;;49.30;8.57;;;4.10;84.70;;;;;;5066512;28;20032;-67
2020/12/14 10:25:41;;;;;;;38.45;8.45;;;4.10;84.70;;;;;;5071114;28;20030;-67
2020/12/14 10:28:07;;;;;;;29.13;6.75;;;4.10;84.50;;;;;;5071102;28;20395;-66
2020/12/14 10:30:34;;;;;;;34.67;7.32;;;4.20;84.50;;;;;;5068245;28;20039;-67
2020/12/14 10:33:00;;;;;;;31.95;10.05;;;4.20;84.40;;;;;;5062500;28;20056;-66
2020/12/14 10:35:27;;;;;;;26.25;7.72;;;4.20;84.40;;;;;;5066880;28;20550;-67
2020/12/14 10:37:55;;;;;;;19.95;7.43;;;4.20;84.40;;;;;;5066552;28;20045;-67
2020/12/14 10:40:22;;;;;;;12.05;7.85;;;4.30;84.50;;;;;;5068322;28;20551;-67
2020/12/14 10:42:48;;;;;;;10.43;6.90;;;4.30;84.50;;;;;;5068022;28;20123;-67
2020/12/14 10:45:13;;;;;;;83.57;7.90;;;4.30;84.60;;;;;;5064395;28;20119;-67
2020/12/14 10:47:39;;;;;;;10.02;7.20;;;4.30;84.60;;;;;;5066973;28;20499;-67
2020/12/14 10:50:06;;;;;;;9.75;7.35;;;4.40;84.50;;;;;;5066409;28;20021;-67
2020/12/14 10:52:32;;;;;;;9.18;6.72;;;4.40;84.60;;;;;;5066213;28;20028;-67
2020/12/14 10:54:58;;;;;;;10.00;6.93;;;4.40;84.80;;;;;;5068574;28;20029;-67
2020/12/14 10:57:23;;;;;;;9.93;7.57;;;4.50;84.90;;;;;;5064810;28;20500;-67
2020/12/14 10:59:49;;;;;;;10.55;7.65;;;4.60;84.90;;;;;;5067723;28;20073;-67
2020/12/14 11:02:15;;;;;;;9.88;7.53;;;4.60;84.70;;;;;;5085256;28;20032;-67
2020/12/14 11:04:41;;;;;;;12.38;8.23;;;4.70;84.70;;;;;;5067824;28;20163;-67
2020/12/14 11:07:08;;;;;;;12.20;8.18;;;4.70;84.70;;;;;;5068585;28;20499;-67
2020/12/14 11:09:34;;;;;;;9.95;6.90;;;4.80;84.60;;;;;;5061280;28;20038;-67
2020/12/14 11:12:04;;;;;;;11.20;7.25;;;4.90;84.60;;;;;;5067713;28;20035;-67
2020/12/14 11:14:31;;;;;;;9.02;6.75;;;4.90;84.60;;;;;;5069365;28;20055;-67
2020/12/14 11:16:56;;;;;;;11.32;7.45;;;4.90;84.60;;;;;;5069148;28;20028;-67
2020/12/14 11:19:22;;;;;;;10.18;7.28;;;5.00;84.70;;;;;;5061376;28;20044;-67
2020/12/14 11:21:55;;;;;;;10.55;7.25;;;5.00;84.60;;;;;;5058076;28;20508;-66
2020/12/14 11:24:24;;;;;;;10.40;6.93;;;5.10;84.70;;;;;;5070209;28;20036;-67
2020/12/14 11:26:50;;;;;;;11.57;7.20;;;5.10;84.70;;;;;;5060865;28;20037;-67
2020/12/14 11:29:17;;;;;;;8.35;6.07;;;5.20;84.70;;;;;;5063790;28;20029;-67
2020/12/14 11:31:43;;;;;;;6.40;5.38;;;5.20;84.60;;;;;;5070432;28;20338;-67
2020/12/14 11:34:09;;;;;;;5.97;5.03;;;5.30;84.70;;;;;;5068057;28;20041;-67
2020/12/14 11:36:35;;;;;;;9.38;5.47;;;5.40;84.80;;;;;;5067243;28;20025;-67
2020/12/14 11:39:01;;;;;;;7.22;5.50;;;5.40;84.80;;;;;;5067303;28;20064;-66
2020/12/14 11:41:27;;;;;;;7.00;5.38;;;5.50;84.70;;;;;;5066024;28;20103;-67
2020/12/14 11:43:54;;;;;;;8.07;5.57;;;5.50;84.60;;;;;;5065759;28;20045;-67
2020/12/14 11:46:20;;;;;;;6.47;5.38;;;5.60;84.60;;;;;;5064055;28;20056;-66
2020/12/14 11:48:46;;;;;;;9.27;6.00;;;5.60;84.60;;;;;;5066825;28;20067;-67
2020/12/14 11:51:11;;;;;;;10.90;7.70;;;5.70;84.70;;;;;;5065597;28;20032;-68
2020/12/14 11:53:37;;;;;;;7.15;6.05;;;5.80;84.80;;;;;;5066756;28;20077;-67
2020/12/14 11:56:03;;;;;;;9.27;5.90;;;5.80;84.70;;;;;;5065475;28;20723;-67
2020/12/14 11:58:31;;;;;;;8.95;6.13;;;5.90;84.60;;;;;;5083300;28;20028;-66
2020/12/14 12:00:56;;;;;;;8.23;5.60;;;6.00;84.40;;;;;;5064697;28;20029;-67
2020/12/14 12:03:24;;;;;;;8.30;5.40;;;6.10;84.30;;;;;;5064412;28;20037;-67
2020/12/14 12:05:49;;;;;;;7.25;5.65;;;6.10;84.00;;;;;;5077470;28;20102;-67
2020/12/14 12:08:15;;;;;;;7.63;5.63;;;6.20;83.80;;;;;;5064743;28;20044;-67
2020/12/14 12:10:41;;;;;;;8.30;5.85;;;6.20;83.60;;;;;;5060840;28;20108;-67
2020/12/14 12:13:07;;;;;;;7.40;5.57;;;6.30;83.40;;;;;;5063505;28;20606;-67
2020/12/14 12:15:33;;;;;;;12.02;6.63;;;6.30;83.30;;;;;;5065604;28;20039;-66
2020/12/14 12:17:59;;;;;;;9.43;5.47;;;6.40;83.30;;;;;;5066875;28;20043;-67
2020/12/14 12:20:25;;;;;;;6.90;5.50;;;6.40;83.30;;;;;;5066464;28;20029;-67
2020/12/14 12:22:52;;;;;;;10.35;6.32;;;6.50;83.30;;;;;;5065822;28;20587;-66
2020/12/14 12:25:17;;;;;;;8.40;5.90;;;6.60;83.30;;;;;;5066154;28;20028;-67
2020/12/14 12:27:43;;;;;;;10.25;6.60;;;6.60;83.20;;;;;;5061986;28;20049;-66
2020/12/14 12:30:09;;;;;;;10.77;7.30;;;6.60;83.00;;;;;;5066504;28;21669;-67
2020/12/14 12:32:34;;;;;;;7.53;6.13;;;6.70;82.90;;;;;;5065092;28;20036;-67
2020/12/14 12:35:00;;;;;;;9.05;6.20;;;6.80;82.70;;;;;;5057218;28;20040;-67
2020/12/14 12:37:26;;;;;;;9.35;5.80;;;6.80;82.60;;;;;;5065650;28;20035;-67
2020/12/14 12:39:52;;;;;;;7.00;5.45;;;6.80;82.10;;;;;;5060871;28;20120;-67
2020/12/14 12:42:18;;;;;;;9.43;6.07;;;6.90;81.90;;;;;;5068453;28;20112;-67
2020/12/14 12:44:44;;;;;;;8.80;5.80;;;6.90;81.80;;;;;;5064426;28;20029;-67
2020/12/14 12:47:10;;;;;;;8.90;5.63;;;6.90;82.60;;;;;;5067131;28;20082;-67
2020/12/14 12:49:35;;;;;;;5.65;4.80;;;7.00;81.70;;;;;;5067143;28;20025;-66
2020/12/14 12:52:01;;;;;;;8.25;5.70;;;7.00;81.50;;;;;;5065562;28;20085;-67
2020/12/14 12:54:27;;;;;;;7.13;5.03;;;6.90;81.30;;;;;;5066424;28;20167;-67